createdAt,value
2023-12-30T00:01:13.304Z,84.72
2023-12-30T00:04:05.406Z,85.56
2023-12-30T00:06:57.351Z,86.38
2023-12-30T00:09:49.139Z,89.27
2023-12-30T00:12:40.939Z,89.64
2023-12-30T00:15:32.910Z,89.92
2023-12-30T00:18:24.799Z,88.80
2023-12-30T00:21:23.306Z,88.82
2023-12-30T00:24:15.073Z,89.10
2023-12-30T00:27:06.802Z,90.89
2023-12-30T00:29:58.608Z,90.89
2023-12-30T00:32:50.418Z,90.30
2023-12-30T00:35:42.250Z,90.50
2023-12-30T00:38:34.044Z,89.78
2023-12-30T00:41:26.816Z,89.66
2023-12-30T00:44:18.696Z,89.39
2023-12-30T00:47:12.516Z,89.29
2023-12-30T00:50:04.742Z,89.00
2023-12-30T00:52:56.799Z,88.33
2023-12-30T00:55:48.544Z,88.43
2023-12-30T00:58:40.319Z,89.94
2023-12-30T01:01:34.110Z,90.18
2023-12-30T01:04:26.030Z,90.86
2023-12-30T01:07:17.905Z,90.74
2023-12-30T01:10:09.879Z,91.34
2023-12-30T01:13:02.310Z,89.97
2023-12-30T01:15:54.245Z,88.59
2023-12-30T01:18:46.133Z,88.20
2023-12-30T01:21:38.084Z,86.62
2023-12-30T01:24:29.837Z,85.38
2023-12-30T01:27:21.593Z,84.87
2023-12-30T01:30:13.617Z,84.03
2023-12-30T01:33:06.624Z,84.30
2023-12-30T01:35:58.806Z,84.17
2023-12-30T01:38:50.550Z,83.53
2023-12-30T01:41:42.670Z,82.80
2023-12-30T01:44:34.465Z,83.68
2023-12-30T01:47:26.516Z,83.53
2023-12-30T01:50:18.871Z,82.23
2023-12-30T01:53:11.823Z,80.64
2023-12-30T01:56:04.487Z,80.46
2023-12-30T01:58:56.592Z,79.82
2023-12-30T02:01:48.415Z,79.84
2023-12-30T02:04:40.462Z,79.43
2023-12-30T02:07:32.523Z,79.61
2023-12-30T02:10:24.451Z,80.63
2023-12-30T02:13:16.464Z,80.24
2023-12-30T02:16:08.485Z,81.99
2023-12-30T02:19:00.612Z,80.74
2023-12-30T02:21:53.202Z,81.01
2023-12-30T02:24:44.985Z,84.45
2023-12-30T02:27:36.962Z,88.39
2023-12-30T02:30:29.654Z,91.17
2023-12-30T02:33:21.485Z,89.32
2023-12-30T02:36:13.306Z,87.33
2023-12-30T02:39:05.060Z,90.20
2023-12-30T02:41:56.817Z,88.04
2023-12-30T02:44:48.726Z,85.99
2023-12-30T02:47:40.524Z,86.34
2023-12-30T02:50:32.366Z,86.35
2023-12-30T02:53:24.146Z,84.72
2023-12-30T02:56:23.554Z,84.67
2023-12-30T02:59:15.504Z,83.65
2023-12-30T03:02:07.595Z,81.78
2023-12-30T03:04:59.554Z,83.02
2023-12-30T03:07:51.327Z,82.49
2023-12-30T03:10:43.136Z,82.27
2023-12-30T03:13:34.968Z,85.18
2023-12-30T03:16:27.502Z,84.52
2023-12-30T03:19:19.410Z,83.92
2023-12-30T03:22:11.265Z,86.86
2023-12-30T03:25:04.522Z,82.90
2023-12-30T03:27:56.347Z,86.35
2023-12-30T03:30:48.122Z,88.87
2023-12-30T03:33:40.024Z,88.05
2023-12-30T03:36:31.870Z,90.37
2023-12-30T03:39:24.380Z,91.20
2023-12-30T03:42:16.112Z,93.92
2023-12-30T03:45:08.584Z,88.09
2023-12-30T03:48:01.429Z,87.49
2023-12-30T03:50:53.388Z,90.43
2023-12-30T03:53:45.198Z,87.84
2023-12-30T03:56:41.229Z,89.96
2023-12-30T03:59:33.016Z,89.45
2023-12-30T04:02:24.851Z,88.28
2023-12-30T04:05:16.793Z,87.84
2023-12-30T04:08:08.569Z,86.79
2023-12-30T04:11:00.703Z,86.41
2023-12-30T04:13:52.614Z,88.88
2023-12-30T04:16:44.505Z,90.79
2023-12-30T04:19:37.124Z,92.18
2023-12-30T04:22:29.170Z,92.25
2023-12-30T04:25:21.056Z,93.26
2023-12-30T04:28:12.952Z,92.91
2023-12-30T04:31:05.064Z,91.29
2023-12-30T04:33:57.003Z,90.14
2023-12-30T04:36:48.979Z,92.51
2023-12-30T04:39:40.789Z,89.32
2023-12-30T04:42:32.539Z,86.19
2023-12-30T04:45:24.360Z,85.34
2023-12-30T04:48:16.233Z,85.76
2023-12-30T04:51:08.079Z,90.42
2023-12-30T04:54:00.293Z,90.72
2023-12-30T04:56:53.226Z,92.17
2023-12-30T04:59:45.218Z,92.01
2023-12-30T05:02:37.267Z,95.13
2023-12-30T05:05:30.272Z,96.78
2023-12-30T05:08:22.085Z,96.15
2023-12-30T05:11:13.833Z,92.51
2023-12-30T05:14:05.669Z,90.07
2023-12-30T05:16:57.442Z,88.98
2023-12-30T05:19:49.222Z,88.74
2023-12-30T05:22:41.289Z,88.43
2023-12-30T05:25:33.170Z,91.90
2023-12-30T05:28:25.039Z,90.88
2023-12-30T05:31:16.866Z,89.72
2023-12-30T05:34:08.835Z,88.16
2023-12-30T05:37:00.676Z,88.49
2023-12-30T05:39:52.461Z,84.98
2023-12-30T05:42:44.254Z,84.62
2023-12-30T05:45:36.274Z,83.05
2023-12-30T05:48:28.046Z,85.67
2023-12-30T05:51:21.785Z,87.60
2023-12-30T05:54:14.949Z,88.03
2023-12-30T05:57:06.762Z,87.03
2023-12-30T05:59:58.632Z,88.98
2023-12-30T06:02:50.411Z,88.13
2023-12-30T06:05:42.223Z,85.50
2023-12-30T06:08:34.000Z,85.40
2023-12-30T06:11:25.791Z,87.18
2023-12-30T06:14:17.614Z,87.33
2023-12-30T06:17:09.373Z,88.34
2023-12-30T06:20:01.808Z,88.92
2023-12-30T06:22:53.666Z,88.38
2023-12-30T06:25:45.493Z,85.22
2023-12-30T06:28:37.350Z,84.83
2023-12-30T06:31:29.218Z,82.23
2023-12-30T06:34:21.123Z,83.19
2023-12-30T06:37:13.029Z,88.11
2023-12-30T06:40:05.503Z,87.86
2023-12-30T06:42:57.323Z,89.83
2023-12-30T06:45:49.133Z,89.06
2023-12-30T06:48:41.092Z,90.39
2023-12-30T06:51:32.878Z,89.02
2023-12-30T06:54:24.620Z,91.45
2023-12-30T06:57:16.366Z,92.15
2023-12-30T07:00:08.918Z,91.13
2023-12-30T07:03:00.766Z,91.14
2023-12-30T07:05:52.547Z,91.20
2023-12-30T07:08:44.497Z,92.54
2023-12-30T07:11:36.363Z,91.67
2023-12-30T07:14:28.070Z,92.61
2023-12-30T07:17:19.817Z,92.81
2023-12-30T07:20:11.768Z,91.88
2023-12-30T07:23:04.137Z,90.44
2023-12-30T07:25:56.064Z,89.06
2023-12-30T07:28:47.860Z,86.79
2023-12-30T07:31:40.704Z,92.04
2023-12-30T07:34:32.538Z,94.14
2023-12-30T07:37:24.348Z,91.17
2023-12-30T07:40:17.047Z,89.63
2023-12-30T07:43:08.884Z,92.53
2023-12-30T07:46:00.948Z,92.26
2023-12-30T07:48:52.830Z,91.18
2023-12-30T07:51:44.854Z,89.38
2023-12-30T07:54:36.711Z,89.20
2023-12-30T07:57:28.522Z,87.83
2023-12-30T08:00:20.397Z,87.37
2023-12-30T08:03:12.245Z,87.54
2023-12-30T08:06:04.357Z,86.64
2023-12-30T08:08:56.155Z,88.96
2023-12-30T08:11:58.188Z,88.17
2023-12-30T08:14:53.845Z,89.18
2023-12-30T08:17:45.855Z,88.12
2023-12-30T08:20:37.728Z,89.87
2023-12-30T08:23:29.542Z,88.82
2023-12-30T08:26:21.818Z,89.01
2023-12-30T08:29:15.528Z,88.56
2023-12-30T08:32:07.418Z,87.93
2023-12-30T08:34:59.287Z,86.94
2023-12-30T08:37:51.132Z,86.23
2023-12-30T08:40:43.678Z,84.35
2023-12-30T08:43:35.571Z,84.94
2023-12-30T08:46:27.496Z,85.81
2023-12-30T08:49:19.459Z,87.37
2023-12-30T08:52:11.323Z,89.23
2023-12-30T08:55:03.235Z,88.67
2023-12-30T08:57:55.080Z,88.18
2023-12-30T09:00:46.988Z,84.75
2023-12-30T09:03:39.332Z,81.99
2023-12-30T09:06:31.279Z,80.52
2023-12-30T09:09:23.086Z,78.93
2023-12-30T09:12:14.857Z,76.19
2023-12-30T09:15:06.961Z,76.79
2023-12-30T09:17:58.900Z,76.67
2023-12-30T09:20:50.771Z,74.67
2023-12-30T09:23:42.836Z,75.81
2023-12-30T09:26:34.743Z,74.37
2023-12-30T09:29:26.713Z,74.93
2023-12-30T09:32:18.662Z,73.29
2023-12-30T09:35:10.671Z,72.88
2023-12-30T09:38:02.679Z,72.58
2023-12-30T09:40:55.965Z,71.68
2023-12-30T09:43:49.104Z,70.99
2023-12-30T09:46:41.467Z,70.99
2023-12-30T09:49:36.172Z,69.33
2023-12-30T09:52:28.369Z,68.83
2023-12-30T09:55:20.241Z,68.49
2023-12-30T09:58:12.670Z,68.46
2023-12-30T10:01:04.739Z,68.76
2023-12-30T10:03:56.901Z,67.22
2023-12-30T10:06:50.719Z,67.17
2023-12-30T10:09:42.858Z,64.87
2023-12-30T10:12:34.632Z,64.78
2023-12-30T10:15:26.383Z,64.69
2023-12-30T10:18:18.288Z,64.41
2023-12-30T10:21:10.172Z,64.23
2023-12-30T10:24:02.459Z,63.65
2023-12-30T10:26:54.247Z,63.42
2023-12-30T10:29:59.499Z,62.92
2023-12-30T10:32:52.202Z,63.40
2023-12-30T10:35:44.749Z,62.19
2023-12-30T10:38:37.208Z,61.92
2023-12-30T10:41:29.001Z,61.58
2023-12-30T10:44:20.903Z,61.52
2023-12-30T10:47:15.959Z,61.53
2023-12-30T10:50:09.946Z,62.33
2023-12-30T10:53:06.848Z,61.41
2023-12-30T10:56:01.145Z,61.66
2023-12-30T10:58:55.714Z,60.62
2023-12-30T11:01:48.438Z,59.62
2023-12-30T11:04:40.728Z,59.77
2023-12-30T11:07:33.335Z,59.53
2023-12-30T11:10:27.013Z,59.53
2023-12-30T11:13:21.677Z,57.32
2023-12-30T11:16:15.435Z,59.06
2023-12-30T11:19:07.532Z,59.17
2023-12-30T11:22:06.402Z,58.51
2023-12-30T11:24:58.222Z,58.35
2023-12-30T11:27:53.224Z,58.13
2023-12-30T11:30:47.273Z,57.78
2023-12-30T11:33:39.228Z,58.02
2023-12-30T11:36:31.979Z,58.61
2023-12-30T11:39:31.865Z,58.36
2023-12-30T11:42:33.825Z,59.00
2023-12-30T11:45:34.227Z,59.48
2023-12-30T11:48:26.071Z,61.92
2023-12-30T11:51:22.120Z,61.78
2023-12-30T11:54:13.897Z,61.21
2023-12-30T11:57:08.749Z,60.43
2023-12-30T12:00:00.595Z,60.90
2023-12-30T12:02:52.452Z,61.13
2023-12-30T12:05:44.250Z,61.28
2023-12-30T12:08:36.100Z,60.47
2023-12-30T12:11:27.901Z,61.24
2023-12-30T12:14:19.624Z,60.63
2023-12-30T12:17:11.505Z,60.12
2023-12-30T12:20:04.608Z,60.70
2023-12-30T12:22:56.819Z,60.41
2023-12-30T12:25:48.764Z,62.75
2023-12-30T12:28:40.871Z,62.71
2023-12-30T12:31:32.836Z,62.44
2023-12-30T12:34:26.343Z,63.70
2023-12-30T12:37:19.260Z,63.08
2023-12-30T12:40:11.662Z,62.54
2023-12-30T12:43:03.833Z,61.95
2023-12-30T12:45:55.963Z,61.36
2023-12-30T12:48:47.903Z,60.62
2023-12-30T12:51:39.739Z,59.45
2023-12-30T12:54:31.508Z,58.76
2023-12-30T12:57:23.251Z,58.45
2023-12-30T13:00:15.715Z,59.32
2023-12-30T13:03:08.061Z,58.73
2023-12-30T13:06:00.106Z,62.52
2023-12-30T13:08:51.865Z,60.65
2023-12-30T13:11:43.642Z,63.46
2023-12-30T13:14:35.477Z,63.05
2023-12-30T13:17:27.434Z,61.82
2023-12-30T13:20:19.344Z,61.64
2023-12-30T13:23:11.107Z,61.76
2023-12-30T13:26:04.761Z,61.08
2023-12-30T13:28:56.881Z,61.09
2023-12-30T13:31:48.760Z,62.34
2023-12-30T13:34:40.805Z,61.94
2023-12-30T13:37:32.642Z,62.17
2023-12-30T13:40:24.661Z,61.83
2023-12-30T13:43:16.443Z,61.50
2023-12-30T13:46:08.230Z,60.86
2023-12-30T13:49:00.237Z,60.97
2023-12-30T13:51:52.104Z,61.21
2023-12-30T13:54:43.854Z,61.27
2023-12-30T13:57:35.607Z,60.72
2023-12-30T14:00:27.422Z,60.27
2023-12-30T14:03:19.294Z,59.67
2023-12-30T14:06:11.306Z,59.08
2023-12-30T14:09:03.221Z,58.05
2023-12-30T14:11:56.629Z,58.12
2023-12-30T14:14:48.748Z,57.81
2023-12-30T14:17:41.005Z,57.43
2023-12-30T14:20:32.811Z,56.91
2023-12-30T14:23:24.557Z,58.65
2023-12-30T14:26:16.337Z,60.31
2023-12-30T14:29:08.085Z,61.26
2023-12-30T14:31:59.870Z,61.81
2023-12-30T14:34:51.712Z,62.26
2023-12-30T14:37:43.679Z,63.30
2023-12-30T14:40:35.636Z,64.02
2023-12-30T14:43:27.567Z,64.62
2023-12-30T14:46:19.535Z,65.23
2023-12-30T14:49:11.430Z,65.45
2023-12-30T14:52:03.422Z,65.02
2023-12-30T14:55:01.858Z,65.49
2023-12-30T14:57:54.502Z,67.42
2023-12-30T15:00:47.440Z,67.33
2023-12-30T15:03:39.428Z,67.63
2023-12-30T15:06:31.282Z,68.99
2023-12-30T15:09:23.326Z,70.28
2023-12-30T15:12:15.114Z,70.41
2023-12-30T15:15:07.008Z,71.01
2023-12-30T15:17:58.998Z,70.16
2023-12-30T15:20:51.015Z,70.53
2023-12-30T15:23:43.042Z,72.41
2023-12-30T15:26:34.812Z,72.07
2023-12-30T15:29:26.665Z,71.61
2023-12-30T15:32:18.846Z,72.39
2023-12-30T15:35:10.985Z,72.75
2023-12-30T15:38:02.972Z,73.79
2023-12-30T15:40:54.827Z,73.54
2023-12-30T15:43:46.762Z,74.17
2023-12-30T15:46:38.597Z,75.21
2023-12-30T15:49:30.459Z,75.59
2023-12-30T15:52:22.531Z,75.59
2023-12-30T15:55:14.465Z,74.75
2023-12-30T15:58:06.273Z,75.36
2023-12-30T16:00:58.085Z,74.99
2023-12-30T16:03:49.854Z,75.12
2023-12-30T16:06:41.752Z,77.24
2023-12-30T16:09:34.002Z,80.35
2023-12-30T16:12:25.763Z,80.85
2023-12-30T16:15:17.573Z,80.91
2023-12-30T16:18:09.656Z,80.24
2023-12-30T16:21:01.532Z,81.03
2023-12-30T16:23:53.299Z,81.70
2023-12-30T16:26:45.325Z,82.27
2023-12-30T16:29:37.055Z,81.59
2023-12-30T16:32:28.969Z,82.22
2023-12-30T16:35:20.911Z,83.00
2023-12-30T16:38:12.747Z,83.76
2023-12-30T16:41:04.682Z,83.68
2023-12-30T16:43:56.458Z,84.14
2023-12-30T16:46:48.408Z,84.99
2023-12-30T16:49:40.220Z,86.07
2023-12-30T16:52:32.278Z,89.43
2023-12-30T16:55:24.102Z,90.11
2023-12-30T16:58:15.906Z,89.91
2023-12-30T17:01:07.760Z,89.76
2023-12-30T17:03:59.667Z,88.21
2023-12-30T17:06:51.790Z,86.83
2023-12-30T17:09:44.038Z,84.87
2023-12-30T17:12:35.889Z,86.03
2023-12-30T17:15:27.631Z,89.15
2023-12-30T17:18:19.490Z,89.71
2023-12-30T17:21:11.240Z,90.64
2023-12-30T17:24:04.047Z,90.94
2023-12-30T17:26:55.858Z,90.04
2023-12-30T17:29:47.682Z,87.97
2023-12-30T17:32:39.493Z,86.92
2023-12-30T17:35:31.294Z,86.88
2023-12-30T17:38:23.122Z,86.32
2023-12-30T17:41:14.932Z,85.46
2023-12-30T17:44:06.794Z,84.90
2023-12-30T17:46:58.608Z,86.17
2023-12-30T17:49:50.458Z,85.45
2023-12-30T17:52:42.259Z,85.90
2023-12-30T17:55:34.088Z,88.20
2023-12-30T17:58:25.923Z,89.06
2023-12-30T18:01:19.139Z,90.58
2023-12-30T18:04:11.016Z,90.77
2023-12-30T18:07:03.281Z,90.62
2023-12-30T18:09:55.096Z,91.42
2023-12-30T18:12:46.878Z,91.43
2023-12-30T18:15:38.617Z,91.77
2023-12-30T18:18:30.528Z,90.94
2023-12-30T18:21:22.462Z,90.80
2023-12-30T18:24:14.213Z,90.11
2023-12-30T18:27:06.021Z,88.71
2023-12-30T18:29:57.787Z,88.25
2023-12-30T18:32:49.946Z,85.61
2023-12-30T18:35:41.855Z,83.18
2023-12-30T18:38:34.188Z,83.66
2023-12-30T18:41:25.974Z,82.52
2023-12-30T18:44:17.774Z,81.29
2023-12-30T18:47:09.530Z,81.51
2023-12-30T18:50:01.344Z,82.17
2023-12-30T18:52:53.191Z,83.47
2023-12-30T18:55:45.075Z,84.21
2023-12-30T18:58:36.875Z,84.41
2023-12-30T19:01:28.758Z,84.00
2023-12-30T19:04:20.620Z,83.69
2023-12-30T19:07:12.466Z,83.38
2023-12-30T19:10:04.634Z,84.45
2023-12-30T19:12:57.035Z,84.17
2023-12-30T19:15:48.938Z,84.22
2023-12-30T19:18:40.837Z,84.03
2023-12-30T19:21:32.649Z,83.47
2023-12-30T19:24:24.414Z,83.17
2023-12-30T19:27:17.183Z,83.87
2023-12-30T19:30:09.342Z,84.75
2023-12-30T19:33:01.409Z,84.43
2023-12-30T19:35:53.676Z,84.92
2023-12-30T19:38:45.826Z,85.55
2023-12-30T19:41:38.529Z,85.49
2023-12-30T19:44:30.512Z,85.76
2023-12-30T19:47:22.372Z,86.49
2023-12-30T19:50:14.103Z,86.55
2023-12-30T19:53:05.978Z,86.42
2023-12-30T19:55:58.294Z,85.46
2023-12-30T19:58:51.307Z,84.68
2023-12-30T20:01:43.153Z,83.96
2023-12-30T20:04:39.369Z,84.02
2023-12-30T20:07:31.195Z,85.05
2023-12-30T20:10:23.067Z,86.19
2023-12-30T20:13:15.189Z,85.76
2023-12-30T20:16:10.307Z,85.62
2023-12-30T20:19:02.167Z,88.48
2023-12-30T20:21:53.990Z,88.87
2023-12-30T20:24:45.784Z,87.68
2023-12-30T20:27:37.640Z,86.67
2023-12-30T20:30:29.380Z,85.20
2023-12-30T20:33:21.241Z,85.09
2023-12-30T20:36:22.234Z,85.16
2023-12-30T20:39:13.982Z,86.01
2023-12-30T20:42:06.086Z,86.65
2023-12-30T20:44:57.814Z,87.87
2023-12-30T20:47:49.736Z,87.59
2023-12-30T20:50:41.566Z,85.83
2023-12-30T20:53:33.313Z,86.47
2023-12-30T20:56:25.102Z,88.10
2023-12-30T20:59:18.585Z,87.88
2023-12-30T21:02:10.398Z,86.81
2023-12-30T21:05:02.178Z,86.88
2023-12-30T21:07:53.989Z,86.78
2023-12-30T21:10:45.937Z,86.43
2023-12-30T21:13:37.730Z,86.56
2023-12-30T21:16:30.094Z,86.43
2023-12-30T21:19:21.875Z,86.76
2023-12-30T21:22:13.677Z,87.52
2023-12-30T21:25:15.471Z,85.65
2023-12-30T21:28:11.230Z,86.78
2023-12-30T21:31:05.015Z,86.34
2023-12-30T21:33:56.938Z,85.96
2023-12-30T21:36:48.793Z,85.93
2023-12-30T21:39:40.797Z,87.33
2023-12-30T21:42:32.587Z,85.37
2023-12-30T21:45:24.407Z,84.23
2023-12-30T21:48:16.264Z,84.85
2023-12-30T21:51:08.889Z,85.70
2023-12-30T21:54:00.737Z,85.46
2023-12-30T21:56:52.527Z,85.06
2023-12-30T21:59:44.251Z,84.94
2023-12-30T22:02:36.054Z,84.11
2023-12-30T22:05:28.700Z,83.53
2023-12-30T22:08:20.518Z,84.36
2023-12-30T22:11:12.254Z,83.97
2023-12-30T22:14:04.019Z,83.70
2023-12-30T22:16:55.762Z,82.66
2023-12-30T22:19:47.631Z,84.41
2023-12-30T22:22:39.541Z,84.12
2023-12-30T22:25:31.336Z,84.11
2023-12-30T22:28:23.160Z,85.05
2023-12-30T22:31:15.001Z,84.54
2023-12-30T22:34:06.872Z,85.51
2023-12-30T22:36:58.693Z,84.55
2023-12-30T22:39:50.529Z,84.17
2023-12-30T22:42:42.523Z,83.24
2023-12-30T22:45:34.342Z,83.31
2023-12-30T22:48:26.207Z,83.83
2023-12-30T22:51:17.969Z,83.62
2023-12-30T22:54:09.757Z,84.85
2023-12-30T22:57:01.502Z,86.41
2023-12-30T22:59:53.246Z,85.77
2023-12-30T23:02:44.977Z,85.25
2023-12-30T23:05:37.245Z,84.88
2023-12-30T23:08:28.999Z,84.83
2023-12-30T23:11:20.722Z,84.91
2023-12-30T23:14:12.466Z,85.14
2023-12-30T23:17:04.611Z,85.24
2023-12-30T23:19:56.378Z,85.19
2023-12-30T23:22:48.646Z,86.24
2023-12-30T23:25:40.495Z,85.35
2023-12-30T23:28:32.309Z,83.35
2023-12-30T23:31:24.345Z,84.24
2023-12-30T23:34:16.138Z,83.60
2023-12-30T23:37:08.119Z,83.85
2023-12-30T23:39:59.945Z,84.78
2023-12-30T23:42:51.756Z,85.21
2023-12-30T23:45:43.541Z,84.90
2023-12-30T23:48:35.329Z,85.46
2023-12-30T23:51:27.120Z,84.46
2023-12-30T23:54:18.890Z,83.59
2023-12-30T23:57:10.739Z,82.97
